Readfield, Wisconsin
Current Conditions -  °F | °C
As of 7:45 AM on Sunday 25 Jan 2015 (Local Time) from KATW Reporting Station
Overcast Overcast  
Wind Chill:   Ceiling: 2000
Heat Index: 18°   Visibility: 10mi
Dew Point:   Wind: 16mph
Humidity: 68%   Direction: 40°NE
Pressure: 29.92"   Gusts: 25mph
Location:  44.27°N, 88.77°W
Report Text: KATW 251345Z 04014G22KT 10SM OVC020 M08/M13 A2992
Loading
Personal Weather Stations






























Interactive Weather Map New forecast layout! Learn more

10-Day Weather Forecast

Advertisements
Track Severe Weather on mobile